createdAt,value
2023-11-02T00:01:08.129Z,9.60
2023-11-02T00:03:52.671Z,9.60
2023-11-02T00:06:22.861Z,9.50
2023-11-02T00:09:15.461Z,9.50
2023-11-02T00:11:54.759Z,9.50
2023-11-02T00:14:24.517Z,9.50
2023-11-02T00:16:54.093Z,9.50
2023-11-02T00:19:32.061Z,9.50
2023-11-02T00:22:07.438Z,9.50
2023-11-02T00:24:38.005Z,9.60
2023-11-02T00:27:07.684Z,9.60
2023-11-02T00:29:36.256Z,9.50
2023-11-02T00:32:04.925Z,9.50
2023-11-02T00:34:35.946Z,9.50
2023-11-02T00:37:04.576Z,9.50
2023-11-02T00:39:32.934Z,9.40
2023-11-02T00:42:01.673Z,9.40
2023-11-02T00:44:30.224Z,9.30
2023-11-02T00:46:59.610Z,9.30
2023-11-02T00:49:32.859Z,9.30
2023-11-02T00:52:03.906Z,9.30
2023-11-02T00:54:56.037Z,9.20
2023-11-02T00:57:26.431Z,9.20
2023-11-02T00:59:55.260Z,9.10
2023-11-02T01:02:24.006Z,9.10
2023-11-02T01:04:57.157Z,9.00
2023-11-02T01:07:29.449Z,9.00
2023-11-02T01:10:00.332Z,8.90
2023-11-02T01:12:34.000Z,8.90
2023-11-02T01:15:04.315Z,8.80
2023-11-02T01:17:34.434Z,8.80
2023-11-02T01:20:09.465Z,8.80
2023-11-02T01:23:04.941Z,8.70
2023-11-02T01:25:36.248Z,8.70
2023-11-02T01:28:07.949Z,8.70
2023-11-02T01:31:09.924Z,8.60
2023-11-02T01:34:02.237Z,8.60
2023-11-02T01:36:39.359Z,8.60
2023-11-02T01:39:41.769Z,8.50
2023-11-02T01:42:21.749Z,8.50
2023-11-02T01:44:59.661Z,8.50
2023-11-02T01:48:01.496Z,8.40
2023-11-02T01:50:34.560Z,8.40
2023-11-02T01:53:32.900Z,8.30
2023-11-02T01:56:10.875Z,8.30
2023-11-02T01:59:04.338Z,8.30
2023-11-02T02:01:36.533Z,8.20
2023-11-02T02:04:17.237Z,8.20
2023-11-02T02:07:06.790Z,8.20
2023-11-02T02:09:51.179Z,8.10
2023-11-02T02:12:38.800Z,8.10
2023-11-02T02:15:12.907Z,8.10
2023-11-02T02:17:50.772Z,8.00
2023-11-02T02:20:23.745Z,8.00
2023-11-02T02:23:01.921Z,8.00
2023-11-02T02:25:38.777Z,7.90
2023-11-02T02:28:46.832Z,7.90
2023-11-02T02:31:32.167Z,7.90
2023-11-02T02:34:20.124Z,7.80
2023-11-02T02:37:00.114Z,7.80
2023-11-02T02:39:35.149Z,7.80
2023-11-02T02:42:06.463Z,7.70
2023-11-02T02:44:38.483Z,7.70
2023-11-02T02:47:10.380Z,7.70
2023-11-02T02:49:44.205Z,7.70
2023-11-02T02:52:19.275Z,7.60
2023-11-02T02:54:51.557Z,7.60
2023-11-02T02:57:21.297Z,7.60
2023-11-02T02:59:55.381Z,7.60
2023-11-02T03:02:35.390Z,7.60
2023-11-02T03:05:05.542Z,7.50
2023-11-02T03:07:37.013Z,7.50
2023-11-02T03:10:09.387Z,7.50
2023-11-02T03:12:43.287Z,7.50
2023-11-02T03:15:14.961Z,7.40
2023-11-02T03:17:57.341Z,7.40
2023-11-02T03:20:27.646Z,7.30
2023-11-02T03:23:04.740Z,7.30
2023-11-02T03:25:49.936Z,7.30
2023-11-02T03:28:30.892Z,7.30
2023-11-02T03:31:07.378Z,7.30
2023-11-02T03:33:45.698Z,7.30
2023-11-02T03:36:21.484Z,7.20
2023-11-02T03:39:05.621Z,7.30
2023-11-02T03:41:47.126Z,7.20
2023-11-02T03:44:23.393Z,7.10
2023-11-02T03:47:03.862Z,7.20
2023-11-02T03:49:44.188Z,7.20
2023-11-02T03:52:21.401Z,7.10
2023-11-02T03:55:12.218Z,7.10
2023-11-02T03:57:55.628Z,7.10
2023-11-02T04:00:24.240Z,7.10
2023-11-02T04:03:01.025Z,7.10
2023-11-02T04:05:33.799Z,7.10
2023-11-02T04:08:11.305Z,7.10
2023-11-02T04:10:55.652Z,7.10
2023-11-02T04:13:29.731Z,7.00
2023-11-02T04:15:57.982Z,7.00
2023-11-02T04:18:26.556Z,7.00
2023-11-02T04:20:55.058Z,7.00
2023-11-02T04:23:24.990Z,7.00
2023-11-02T04:25:57.029Z,7.00
2023-11-02T04:28:26.234Z,6.90
2023-11-02T04:30:54.514Z,6.90
2023-11-02T04:33:23.407Z,6.90
2023-11-02T04:35:51.848Z,6.90
2023-11-02T04:38:20.494Z,6.80
2023-11-02T04:40:48.761Z,6.80
2023-11-02T04:43:18.768Z,6.80
2023-11-02T04:45:47.958Z,6.80
2023-11-02T04:48:16.886Z,6.70
2023-11-02T04:50:45.733Z,6.80
2023-11-02T04:53:14.440Z,6.80
2023-11-02T04:55:43.104Z,6.80
2023-11-02T04:58:11.977Z,6.80
2023-11-02T05:00:41.732Z,6.80
2023-11-02T05:03:10.526Z,6.80
2023-11-02T05:05:39.231Z,6.80
2023-11-02T05:08:09.998Z,6.80
2023-11-02T05:10:38.309Z,6.90
2023-11-02T05:13:07.311Z,6.90
2023-11-02T05:15:35.583Z,6.90
2023-11-02T05:18:06.222Z,6.90
2023-11-02T05:20:35.092Z,7.00
2023-11-02T05:23:03.718Z,7.00
2023-11-02T05:25:31.928Z,7.00
2023-11-02T05:28:00.904Z,7.00
2023-11-02T05:30:29.325Z,7.10
2023-11-02T05:32:57.913Z,7.10
2023-11-02T05:35:27.639Z,7.10
2023-11-02T05:37:56.133Z,7.10
2023-11-02T05:40:24.317Z,7.10
2023-11-02T05:42:52.951Z,7.10
2023-11-02T05:45:22.652Z,7.20
2023-11-02T05:47:51.400Z,7.10
2023-11-02T05:50:20.499Z,7.10
2023-11-02T05:52:50.711Z,7.10
2023-11-02T05:55:19.354Z,7.10
2023-11-02T05:57:48.121Z,7.10
2023-11-02T06:00:17.319Z,7.20
2023-11-02T06:02:45.859Z,7.10
2023-11-02T06:05:14.541Z,7.10
2023-11-02T06:07:43.049Z,7.20
2023-11-02T06:10:13.085Z,7.20
2023-11-02T06:12:42.063Z,7.20
2023-11-02T06:15:12.448Z,7.20
2023-11-02T06:17:41.152Z,7.20
2023-11-02T06:20:10.695Z,7.20
2023-11-02T06:22:39.261Z,7.20
2023-11-02T06:25:08.070Z,7.30
2023-11-02T06:27:38.692Z,7.30
2023-11-02T06:30:08.460Z,7.30
2023-11-02T06:32:37.814Z,7.30
2023-11-02T06:35:06.837Z,7.40
2023-11-02T06:37:35.548Z,7.40
2023-11-02T06:40:04.541Z,7.50
2023-11-02T06:42:33.402Z,7.50
2023-11-02T06:45:04.699Z,7.70
2023-11-02T06:47:33.482Z,7.80
2023-11-02T06:50:01.904Z,8.10
2023-11-02T06:52:30.561Z,8.40
2023-11-02T06:54:58.860Z,8.60
2023-11-02T06:57:27.533Z,9.00
2023-11-02T06:59:55.809Z,9.20
2023-11-02T07:02:25.964Z,9.60
2023-11-02T07:04:58.314Z,9.80
2023-11-02T07:07:27.754Z,10.10
2023-11-02T07:09:56.119Z,10.30
2023-11-02T07:12:24.698Z,10.50
2023-11-02T07:14:52.966Z,10.60
2023-11-02T07:17:22.089Z,10.60
2023-11-02T07:19:51.757Z,10.50
2023-11-02T07:22:20.599Z,10.40
2023-11-02T07:24:48.918Z,10.40
2023-11-02T07:27:17.946Z,10.30
2023-11-02T07:29:46.506Z,10.30
2023-11-02T07:32:15.130Z,10.30
2023-11-02T07:34:43.408Z,10.30
2023-11-02T07:37:13.430Z,10.20
2023-11-02T07:39:41.721Z,10.10
2023-11-02T07:42:10.405Z,10.00
2023-11-02T07:44:38.788Z,10.00
2023-11-02T07:47:07.481Z,10.20
2023-11-02T07:49:36.374Z,10.30
2023-11-02T07:52:05.323Z,10.40
2023-11-02T07:54:58.300Z,10.50
2023-11-02T07:57:27.329Z,10.50
2023-11-02T07:59:55.623Z,10.50
2023-11-02T08:02:24.170Z,10.50
2023-11-02T08:04:52.505Z,10.60
2023-11-02T08:07:21.152Z,10.80
2023-11-02T08:09:49.503Z,11.10
2023-11-02T08:12:22.007Z,11.30
2023-11-02T08:14:50.712Z,11.60
2023-11-02T08:17:22.694Z,11.80
2023-11-02T08:19:53.161Z,12.00
2023-11-02T08:22:22.153Z,12.20
2023-11-02T08:24:50.864Z,12.40
2023-11-02T08:27:20.836Z,12.60
2023-11-02T08:29:52.045Z,12.80
2023-11-02T08:32:20.803Z,12.90
2023-11-02T08:34:49.266Z,13.10
2023-11-02T08:37:18.346Z,13.20
2023-11-02T08:39:46.697Z,13.30
2023-11-02T08:42:15.309Z,13.50
2023-11-02T08:44:46.501Z,13.60
2023-11-02T08:47:15.310Z,13.90
2023-11-02T08:49:44.131Z,14.10
2023-11-02T08:52:12.770Z,14.30
2023-11-02T08:54:41.082Z,14.50
2023-11-02T08:57:09.717Z,14.60
2023-11-02T08:59:38.074Z,14.80
2023-11-02T09:02:08.103Z,15.00
2023-11-02T09:04:36.419Z,15.20
2023-11-02T09:07:06.162Z,15.20
2023-11-02T09:09:34.604Z,15.30
2023-11-02T09:12:03.459Z,15.30
2023-11-02T09:14:31.979Z,15.40
2023-11-02T09:17:00.582Z,15.40
2023-11-02T09:19:30.224Z,15.40
2023-11-02T09:21:58.925Z,15.40
2023-11-02T09:24:29.112Z,15.50
2023-11-02T09:26:58.204Z,15.50
2023-11-02T09:29:26.525Z,15.60
2023-11-02T09:32:02.219Z,15.60
2023-11-02T09:34:39.906Z,15.60
2023-11-02T09:37:08.710Z,15.70
2023-11-02T09:39:38.187Z,15.70
2023-11-02T09:42:07.676Z,15.80
2023-11-02T09:44:36.436Z,15.90
2023-11-02T09:47:05.290Z,15.90
2023-11-02T09:49:35.874Z,15.90
2023-11-02T09:52:05.940Z,15.90
2023-11-02T09:54:45.669Z,15.90
2023-11-02T09:57:17.044Z,15.90
2023-11-02T09:59:47.442Z,15.90
2023-11-02T10:02:18.883Z,15.90
2023-11-02T10:04:48.810Z,16.00
2023-11-02T10:07:19.089Z,16.00
2023-11-02T10:09:49.717Z,16.10
2023-11-02T10:12:19.421Z,16.10
2023-11-02T10:14:47.805Z,16.10
2023-11-02T10:17:18.572Z,16.10
2023-11-02T10:19:50.775Z,16.10
2023-11-02T10:22:19.581Z,16.20
2023-11-02T10:24:48.630Z,16.20
2023-11-02T10:27:18.214Z,16.20
2023-11-02T10:29:47.503Z,16.20
2023-11-02T10:32:18.230Z,16.20
2023-11-02T10:34:48.822Z,16.30
2023-11-02T10:37:30.764Z,16.20
2023-11-02T10:39:59.203Z,16.20
2023-11-02T10:42:28.636Z,16.20
2023-11-02T10:44:57.887Z,16.30
2023-11-02T10:47:31.239Z,16.30
2023-11-02T10:50:02.493Z,16.40
2023-11-02T10:52:40.149Z,16.50
2023-11-02T10:55:16.824Z,16.50
2023-11-02T10:57:49.175Z,16.50
2023-11-02T11:00:19.183Z,16.50
2023-11-02T11:02:50.463Z,16.40
2023-11-02T11:05:21.073Z,16.40
2023-11-02T11:07:58.789Z,16.40
2023-11-02T11:10:27.459Z,16.50
2023-11-02T11:12:56.770Z,16.50
2023-11-02T11:15:26.739Z,16.50
2023-11-02T11:17:57.181Z,16.40
2023-11-02T11:20:27.270Z,16.40
2023-11-02T11:22:56.746Z,16.40
2023-11-02T11:25:25.197Z,16.40
2023-11-02T11:27:54.081Z,16.40
2023-11-02T11:30:40.415Z,16.50
2023-11-02T11:33:42.574Z,16.60
2023-11-02T11:36:25.485Z,16.60
2023-11-02T11:38:54.830Z,16.50
2023-11-02T11:41:43.057Z,16.40
2023-11-02T11:44:19.537Z,16.30
2023-11-02T11:46:51.116Z,16.20
2023-11-02T11:49:46.960Z,16.10
2023-11-02T11:52:24.642Z,16.00
2023-11-02T11:54:54.306Z,16.00
2023-11-02T11:57:55.412Z,16.00
2023-11-02T12:00:25.582Z,16.00
2023-11-02T12:02:56.617Z,16.00
2023-11-02T12:05:53.215Z,16.00
2023-11-02T12:08:24.004Z,16.00
2023-11-02T12:10:58.628Z,16.00
2023-11-02T12:13:27.145Z,16.00
2023-11-02T12:15:58.550Z,16.00
2023-11-02T12:18:29.894Z,16.00
2023-11-02T12:21:00.967Z,16.00
2023-11-02T12:23:35.179Z,16.00
2023-11-02T12:26:05.860Z,15.90
2023-11-02T12:28:41.523Z,15.90
2023-11-02T12:31:10.619Z,15.80
2023-11-02T12:33:39.208Z,15.80
2023-11-02T12:36:09.204Z,15.70
2023-11-02T12:38:41.518Z,15.60
2023-11-02T12:41:10.595Z,15.60
2023-11-02T12:43:40.857Z,15.50
2023-11-02T12:46:11.853Z,15.40
2023-11-02T12:48:42.622Z,15.40
2023-11-02T12:51:21.875Z,15.30
2023-11-02T12:53:53.027Z,15.20
2023-11-02T12:56:27.350Z,15.20
2023-11-02T12:59:05.366Z,15.10
2023-11-02T13:01:48.155Z,15.00
2023-11-02T13:04:17.702Z,15.00
2023-11-02T13:06:47.491Z,15.00
2023-11-02T13:09:19.803Z,15.00
2023-11-02T13:11:52.346Z,15.00
2023-11-02T13:14:24.439Z,15.00
2023-11-02T13:16:56.588Z,15.00
2023-11-02T13:19:26.320Z,15.00
2023-11-02T13:21:56.170Z,15.00
2023-11-02T13:24:26.037Z,15.00
2023-11-02T13:26:57.216Z,15.00
2023-11-02T13:29:27.438Z,15.10
2023-11-02T13:31:56.018Z,15.10
2023-11-02T13:34:24.329Z,15.10
2023-11-02T13:36:52.996Z,15.20
2023-11-02T13:39:22.194Z,15.20
2023-11-02T13:41:51.811Z,15.30
2023-11-02T13:44:20.247Z,15.30
2023-11-02T13:46:48.792Z,15.30
2023-11-02T13:49:17.069Z,15.30
2023-11-02T13:51:47.315Z,15.30
2023-11-02T13:54:15.683Z,15.30
2023-11-02T13:56:45.215Z,15.30
2023-11-02T13:59:14.868Z,15.20
2023-11-02T14:01:43.852Z,15.10
2023-11-02T14:04:12.367Z,15.10
2023-11-02T14:06:41.223Z,15.00
2023-11-02T14:09:09.785Z,15.00
2023-11-02T14:11:38.570Z,14.90
2023-11-02T14:14:07.755Z,14.90
2023-11-02T14:16:38.986Z,14.80
2023-11-02T14:19:09.457Z,14.80
2023-11-02T14:21:38.237Z,14.70
2023-11-02T14:24:08.660Z,14.60
2023-11-02T14:26:37.538Z,14.60
2023-11-02T14:29:05.943Z,14.50
2023-11-02T14:31:34.703Z,14.50
2023-11-02T14:34:06.511Z,14.40
2023-11-02T14:36:36.081Z,14.30
2023-11-02T14:39:05.246Z,14.20
2023-11-02T14:41:34.184Z,14.20
2023-11-02T14:44:02.584Z,14.10
2023-11-02T14:46:31.325Z,14.10
2023-11-02T14:48:59.712Z,14.00
2023-11-02T14:51:30.017Z,14.00
2023-11-02T14:53:58.494Z,13.90
2023-11-02T14:56:27.969Z,13.90
2023-11-02T14:58:56.254Z,13.80
2023-11-02T15:01:25.324Z,13.60
2023-11-02T15:03:53.769Z,13.60
2023-11-02T15:06:22.557Z,13.50
2023-11-02T15:09:01.095Z,13.40
2023-11-02T15:11:34.416Z,13.40
2023-11-02T15:14:02.961Z,13.30
2023-11-02T15:16:33.361Z,13.20
2023-11-02T15:19:01.836Z,13.20
2023-11-02T15:21:30.593Z,13.20
2023-11-02T15:24:02.403Z,13.20
2023-11-02T15:26:31.027Z,13.20
2023-11-02T15:28:59.450Z,13.20
2023-11-02T15:31:31.506Z,13.20
2023-11-02T15:33:59.964Z,13.20
2023-11-02T15:36:28.539Z,13.10
2023-11-02T15:38:58.710Z,13.10
2023-11-02T15:41:29.506Z,13.10
2023-11-02T15:43:57.868Z,13.10
2023-11-02T15:46:26.964Z,13.10
2023-11-02T15:48:55.509Z,13.10
2023-11-02T15:51:24.132Z,13.00
2023-11-02T15:53:53.065Z,13.00
2023-11-02T15:56:21.822Z,13.00
2023-11-02T15:58:51.534Z,13.00
2023-11-02T16:01:28.093Z,13.00
2023-11-02T16:03:56.643Z,12.90
2023-11-02T16:06:26.488Z,13.00
2023-11-02T16:08:55.249Z,12.90
2023-11-02T16:11:23.782Z,13.00
2023-11-02T16:13:53.529Z,13.00
2023-11-02T16:16:22.056Z,13.00
2023-11-02T16:18:50.780Z,13.00
2023-11-02T16:21:28.347Z,13.00
2023-11-02T16:23:57.432Z,13.00
2023-11-02T16:26:26.614Z,13.00
2023-11-02T16:28:57.404Z,13.10
2023-11-02T16:31:26.356Z,13.10
2023-11-02T16:33:55.354Z,13.10
2023-11-02T16:36:41.738Z,13.10
2023-11-02T16:39:12.881Z,13.10
2023-11-02T16:41:45.547Z,13.10
2023-11-02T16:44:15.899Z,13.10
2023-11-02T16:46:45.364Z,13.10
2023-11-02T16:49:14.329Z,13.10
2023-11-02T16:51:44.198Z,13.10
2023-11-02T16:54:12.774Z,13.10
2023-11-02T16:56:41.991Z,13.00
2023-11-02T16:59:11.728Z,13.00
2023-11-02T17:01:42.341Z,13.10
2023-11-02T17:04:11.662Z,13.10
2023-11-02T17:06:40.339Z,13.00
2023-11-02T17:09:10.093Z,13.00
2023-11-02T17:11:39.404Z,13.00
2023-11-02T17:14:07.880Z,13.10
2023-11-02T17:16:36.590Z,13.00
2023-11-02T17:19:06.382Z,13.00
2023-11-02T17:21:35.125Z,13.00
2023-11-02T17:24:03.549Z,13.10
2023-11-02T17:26:32.242Z,13.00
2023-11-02T17:29:00.867Z,13.10
2023-11-02T17:31:30.660Z,13.10
2023-11-02T17:33:59.011Z,13.10
2023-11-02T17:36:29.360Z,13.10
2023-11-02T17:38:57.884Z,13.10
2023-11-02T17:41:29.551Z,13.10
2023-11-02T17:43:58.748Z,13.10
2023-11-02T17:46:27.341Z,13.10
2023-11-02T17:48:55.655Z,13.10
2023-11-02T17:51:26.314Z,13.10
2023-11-02T17:53:56.222Z,13.10
2023-11-02T17:56:25.278Z,13.10
2023-11-02T17:58:53.603Z,13.10
2023-11-02T18:01:22.172Z,13.10
2023-11-02T18:03:50.714Z,13.10
2023-11-02T18:06:19.510Z,13.00
2023-11-02T18:08:47.683Z,13.10
2023-11-02T18:11:17.631Z,13.00
2023-11-02T18:13:45.913Z,13.00
2023-11-02T18:16:15.218Z,13.00
2023-11-02T18:18:43.646Z,13.00
2023-11-02T18:21:12.242Z,13.00
2023-11-02T18:23:40.463Z,13.00
2023-11-02T18:26:10.219Z,12.90
2023-11-02T18:28:39.993Z,12.90
2023-11-02T18:31:08.801Z,12.90
2023-11-02T18:33:38.689Z,12.90
2023-11-02T18:36:10.980Z,12.90
2023-11-02T18:38:40.306Z,12.80
2023-11-02T18:41:08.951Z,12.90
2023-11-02T18:43:38.901Z,12.80
2023-11-02T18:46:17.853Z,12.80
2023-11-02T18:48:48.223Z,12.80
2023-11-02T18:51:18.442Z,12.80
2023-11-02T18:53:47.816Z,12.90
2023-11-02T18:56:17.161Z,12.80
2023-11-02T18:58:46.205Z,12.90
2023-11-02T19:01:20.501Z,12.80
2023-11-02T19:03:49.356Z,12.90
2023-11-02T19:06:18.759Z,12.90
2023-11-02T19:08:48.669Z,12.90
2023-11-02T19:11:19.231Z,12.90
2023-11-02T19:13:47.562Z,12.90
2023-11-02T19:16:16.712Z,12.90
2023-11-02T19:18:46.638Z,13.00
2023-11-02T19:21:17.720Z,13.00
2023-11-02T19:23:46.307Z,13.00
2023-11-02T19:26:17.549Z,13.10
2023-11-02T19:28:45.881Z,13.10
2023-11-02T19:31:14.829Z,13.10
2023-11-02T19:33:43.240Z,13.20
2023-11-02T19:36:13.276Z,13.20
2023-11-02T19:38:41.633Z,13.20
2023-11-02T19:41:10.952Z,13.20
2023-11-02T19:43:42.017Z,13.30
2023-11-02T19:46:11.609Z,13.30
2023-11-02T19:48:40.799Z,13.30
2023-11-02T19:51:15.020Z,13.30
2023-11-02T19:53:43.500Z,13.30
2023-11-02T19:56:12.675Z,13.30
2023-11-02T19:58:41.010Z,13.30
2023-11-02T20:01:10.005Z,13.30
2023-11-02T20:03:38.780Z,13.40
2023-11-02T20:06:08.107Z,13.60
2023-11-02T20:08:37.924Z,13.70
2023-11-02T20:11:08.968Z,13.80
2023-11-02T20:13:37.502Z,13.90
2023-11-02T20:16:06.801Z,14.10
2023-11-02T20:18:36.009Z,14.20
2023-11-02T20:21:07.034Z,14.40
2023-11-02T20:23:36.968Z,14.50
2023-11-02T20:26:06.022Z,14.60
2023-11-02T20:28:34.475Z,14.70
2023-11-02T20:31:03.285Z,14.80
2023-11-02T20:33:32.287Z,14.80
2023-11-02T20:36:02.590Z,14.90
2023-11-02T20:38:30.934Z,15.00
2023-11-02T20:41:01.899Z,15.00
2023-11-02T20:43:30.315Z,15.00
2023-11-02T20:46:00.363Z,15.10
2023-11-02T20:48:31.692Z,15.10
2023-11-02T20:51:01.221Z,15.00
2023-11-02T20:53:29.639Z,15.10
2023-11-02T20:55:58.398Z,15.10
2023-11-02T20:58:28.266Z,15.10
2023-11-02T21:00:59.044Z,15.10
2023-11-02T21:03:28.522Z,15.10
2023-11-02T21:06:01.327Z,15.00
2023-11-02T21:08:31.000Z,15.00
2023-11-02T21:10:59.826Z,15.00
2023-11-02T21:13:29.433Z,15.00
2023-11-02T21:15:58.081Z,15.10
2023-11-02T21:18:26.462Z,15.00
2023-11-02T21:20:55.134Z,15.00
2023-11-02T21:23:23.344Z,15.00
2023-11-02T21:25:53.634Z,15.00
2023-11-02T21:28:21.994Z,15.00
2023-11-02T21:30:51.941Z,15.00
2023-11-02T21:33:20.291Z,15.00
2023-11-02T21:35:48.861Z,15.00
2023-11-02T21:38:17.378Z,14.90
2023-11-02T21:40:45.849Z,14.90
2023-11-02T21:43:15.417Z,15.00
2023-11-02T21:45:43.950Z,14.90
2023-11-02T21:48:13.666Z,14.90
2023-11-02T21:50:42.257Z,14.80
2023-11-02T21:53:10.469Z,14.80
2023-11-02T21:55:39.014Z,14.80
2023-11-02T21:58:07.224Z,14.70
2023-11-02T22:00:36.013Z,14.70
2023-11-02T22:03:04.655Z,14.60
2023-11-02T22:05:35.787Z,14.60
2023-11-02T22:08:04.438Z,14.60
2023-11-02T22:10:33.148Z,14.50
2023-11-02T22:13:01.518Z,14.60
2023-11-02T22:15:30.490Z,14.50
2023-11-02T22:17:58.847Z,14.50
2023-11-02T22:20:27.368Z,14.50
2023-11-02T22:22:56.946Z,14.50
2023-11-02T22:25:25.771Z,14.50
2023-11-02T22:27:54.122Z,14.50
2023-11-02T22:30:22.712Z,14.50
2023-11-02T22:32:51.124Z,14.50
2023-11-02T22:35:19.724Z,14.50
2023-11-02T22:37:47.964Z,14.50
2023-11-02T22:40:18.384Z,14.50
2023-11-02T22:42:46.727Z,14.40
2023-11-02T22:45:15.487Z,14.40
2023-11-02T22:47:43.845Z,14.40
2023-11-02T22:50:13.210Z,14.40
2023-11-02T22:52:41.653Z,14.40
2023-11-02T22:55:10.612Z,14.50
2023-11-02T22:57:40.260Z,14.40
2023-11-02T23:00:21.848Z,14.40
2023-11-02T23:02:50.467Z,14.40
2023-11-02T23:05:19.062Z,14.40
2023-11-02T23:07:48.117Z,14.40
2023-11-02T23:10:16.463Z,14.40
2023-11-02T23:12:46.597Z,14.40
2023-11-02T23:15:15.201Z,14.40
2023-11-02T23:17:43.785Z,14.40
2023-11-02T23:20:14.320Z,14.40
2023-11-02T23:22:42.936Z,14.40
2023-11-02T23:25:11.236Z,14.40
2023-11-02T23:27:39.839Z,14.40
2023-11-02T23:30:10.710Z,14.40
2023-11-02T23:32:39.176Z,14.40
2023-11-02T23:35:10.048Z,14.40
2023-11-02T23:37:39.025Z,14.40
2023-11-02T23:40:08.349Z,14.40
2023-11-02T23:42:36.927Z,14.40
2023-11-02T23:45:05.851Z,14.40
2023-11-02T23:47:35.806Z,14.30
2023-11-02T23:50:04.227Z,14.30
2023-11-02T23:52:35.004Z,14.20
2023-11-02T23:55:04.013Z,14.20
2023-11-02T23:57:32.719Z,14.10
